KCDW

Essex County Airport

Caldwell, New Jersey, USA
METAR KCDW 250453Z AUTO VRB03KT 10SM CLR 19/09 A3009 RMK AO2 SLP193 T01890089 403000128
Observed Flight Rules
May-25 @ 04:53 UTC (28 minutes ago) Visual Flight Rules
Wind Visibility Clouds
Variable at 3 knots 10 miles
  • Clear skies
Temperatures Readings
Current 19°C / 66°F
Dewpoint 9°C / 48°F
Humidity 52%
Altimeter 30.09" Hg
Pressure 1019.3 hPa
Elevation 64
METAR KCDW 250453Z AUTO VRB03KT 10SM CLR 19/09 A3009 RMK AO2 SLP193 T01890089 403000128
Observed Flight Rules
May-25 @ 04:53 UTC
(28 minutes ago)
VFR
Wind Visibility
Variable at 3 knots 10 miles
Clouds
  • Clear skies
Temperature Dewpoint
19°C / 66°F 9°C / 48°F
Humidity Altimeter Pressure
52% 30.09" Hg 1019.3 hPa